Terminal Aerodrome Forecast
Issued by NWS

Home | Current Version | Previous Version | Text Only | Print | Product List | Glossary On
Versions: 1 2 3 4 5 6 7 8 9 10 11 12 13 14
503
FTUS42 KMLB 290538
TAFSUA
TAF
KSUA 290538Z 2906/3006 VRB03KT P6SM SCT070
     FM291600 10010KT P6SM SCT040
     FM300000 13006KT P6SM FEW060 SCT250=

USA.gov is the U.S. government's official web portal to all federal, state and local government web resources and services.